Terminal Aerodrome Forecast
Issued by NWS Missoula, MT

Home | Current Version | Previous Version | Text Only | Print | Product List | Glossary On
Versions: 1 2 3 4 5 6 7 8 9 10 11 12 13 14
000
FTUS45 KMSO 030520
TAFBTM
TAF
KBTM 030520Z 0306/0406 01013G19KT 2SM -SN FEW015 OVC023
     FM031000 32008KT P6SM BKN050 BKN100
     FM040100 VRB04KT P6SM FEW150=

USA.gov is the U.S. government's official web portal to all federal, state and local government web resources and services.